createdAt,value
2015-10-27T00:20:53.885Z,1.0
2015-10-27T00:23:02.281Z,9
2015-10-27T00:24:54.896Z,9
2015-10-27T00:25:01.771Z,9
2015-10-27T00:26:01.930Z,9
2015-10-27T00:27:16.589Z,9
2015-10-27T00:28:01.982Z,9
2015-10-27T00:29:02.204Z,9
2015-10-27T00:30:01.300Z,9
2015-10-27T00:31:01.569Z,9
2015-10-27T00:32:01.993Z,9
2015-10-27T00:33:02.043Z,9
2015-10-27T00:34:02.171Z,9
2015-10-27T00:35:01.345Z,9
2015-10-27T00:36:01.534Z,9
2015-10-27T00:37:01.725Z,9
2015-10-27T00:38:01.962Z,9
2015-10-27T00:39:01.762Z,9
2015-10-27T00:40:01.874Z,9
2015-10-27T00:41:02.096Z,9
2015-10-27T00:42:02.192Z,9
2015-10-27T00:45:01.498Z,9
2015-10-27T00:46:01.749Z,9
2015-10-27T00:47:02.033Z,9
2015-10-27T00:48:02.192Z,1
2015-10-27T00:49:01.367Z,1
2015-10-27T00:50:01.541Z,1
2015-10-27T00:51:01.731Z,1
2015-10-27T00:52:01.828Z,1
2015-10-27T00:53:02.019Z,1
2015-10-27T00:54:02.161Z,1
2015-10-27T00:55:01.320Z,1
2015-10-27T00:56:00.573Z,1
2015-10-27T00:57:01.951Z,1
2015-10-27T00:58:02.125Z,1
2015-10-27T00:59:01.331Z,1
2015-10-27T01:00:01.506Z,1
2015-10-27T01:01:01.634Z,1
2015-10-27T01:02:01.792Z,1
2015-10-27T01:03:02.029Z,1
2015-10-27T01:04:01.360Z,1
2015-10-27T01:05:01.582Z,1
2015-10-27T01:06:01.663Z,1
2015-10-27T01:07:01.321Z,1
2015-10-27T01:08:01.434Z,1
2015-10-27T01:09:01.952Z,1
2015-10-27T01:10:02.096Z,1
2015-10-27T01:11:01.285Z,1
2015-10-27T01:12:01.445Z,1
2015-10-27T01:13:01.587Z,1
2015-10-27T01:14:01.371Z,1
2015-10-27T01:15:01.530Z,1
2015-10-27T01:16:01.705Z,1
2015-10-27T01:17:01.864Z,1
2015-10-27T01:18:01.867Z,1
2015-10-27T01:19:02.259Z,1
2015-10-27T01:20:01.419Z,1
2015-10-27T01:21:01.422Z,1
2015-10-27T01:22:01.784Z,1
2015-10-27T01:23:05.786Z,1
2015-10-27T01:24:01.383Z,1
2015-10-27T01:25:01.558Z,1
2015-10-27T01:26:01.733Z,1
2015-10-27T01:27:01.938Z,1
2015-10-27T01:28:01.863Z,1
2015-10-27T01:29:02.052Z,1
2015-10-27T01:30:01.305Z,1
2015-10-27T01:31:02.245Z,1
2015-10-27T01:32:01.716Z,1
2015-10-27T01:33:01.876Z,1
2015-10-27T01:34:02.019Z,1
2015-10-27T01:35:02.162Z,1
2015-10-27T01:36:01.415Z,1
2015-10-27T01:37:01.683Z,1
2015-10-27T01:38:01.718Z,1
2015-10-27T01:39:01.876Z,1
2015-10-27T01:40:02.004Z,1
2015-10-27T01:41:01.303Z,1
2015-10-27T01:42:01.462Z,1
2015-10-27T01:43:01.653Z,1
2015-10-27T01:44:01.781Z,1
2015-10-27T01:45:01.986Z,1
2015-10-27T01:46:02.114Z,1
2015-10-27T01:47:01.289Z,1
2015-10-27T01:48:01.448Z,1
2015-10-27T01:49:02.231Z,1
2015-10-27T01:50:01.343Z,1
2015-10-27T01:51:01.628Z,1
2015-10-27T01:52:01.756Z,1
2015-10-27T01:53:01.914Z,1
2015-10-27T01:54:02.214Z,1
2015-10-27T01:55:01.357Z,1
2015-10-27T01:56:01.516Z,1
2015-10-27T01:57:01.690Z,1
2015-10-27T01:58:01.864Z,1
2015-10-27T01:59:02.024Z,1
2015-10-27T02:00:02.214Z,1
2015-10-27T02:02:32.719Z,1
2015-10-27T02:03:01.316Z,1
2015-10-27T02:04:01.819Z,1
2015-10-27T02:05:01.993Z,1
2015-10-27T02:06:01.293Z,1
2015-10-27T02:07:01.468Z,1
2015-10-27T02:08:01.361Z,1
2015-10-27T02:09:01.910Z,1
2015-10-27T02:10:02.038Z,1
2015-10-27T02:11:02.213Z,1
2015-10-27T02:12:01.340Z,1
2015-10-27T02:13:01.280Z,1
2015-10-27T02:14:01.439Z,1
2015-10-27T02:15:01.598Z,1
2015-10-27T02:16:01.960Z,1
2015-10-27T02:17:03.229Z,1
2015-10-27T02:18:01.653Z,1
2015-10-27T02:19:01.812Z,1
2015-10-27T02:20:01.987Z,1
2015-10-27T02:21:02.162Z,1
2015-10-27T02:22:02.258Z,1
2015-10-27T02:23:01.416Z,1
2015-10-27T02:24:01.575Z,1
2015-10-27T02:25:01.703Z,1
2015-10-27T02:26:00.939Z,1
2015-10-27T02:27:02.146Z,1
2015-10-27T02:28:02.242Z,1
2015-10-27T02:29:01.698Z,1
2015-10-27T02:30:02.154Z,1
2015-10-27T02:31:02.110Z,1
2015-10-27T02:32:02.300Z,1
2015-10-27T02:33:01.350Z,1
2015-10-27T02:34:01.540Z,1
2015-10-27T02:35:01.793Z,1
2015-10-27T02:36:02.092Z,1
2015-10-27T02:37:01.283Z,1
2015-10-27T02:38:01.613Z,1
2015-10-27T02:39:01.724Z,1
2015-10-27T02:40:01.931Z,1
2015-10-27T02:41:01.605Z,1
2015-10-27T02:42:01.498Z,1
2015-10-27T02:43:01.657Z,1
2015-10-27T02:44:01.785Z,1
2015-10-27T02:45:01.960Z,1
2015-10-27T02:46:02.118Z,1
2015-10-27T02:47:02.310Z,1
2015-10-27T02:48:02.218Z,1
2015-10-27T02:49:01.440Z,1
2015-10-27T02:50:01.598Z,1
2015-10-27T02:51:01.742Z,1
2015-10-27T02:52:01.853Z,1
2015-10-27T02:53:02.012Z,1
2015-10-27T02:54:02.187Z,1
2015-10-27T02:55:02.081Z,1
2015-10-27T02:56:02.224Z,1
2015-10-27T02:57:01.383Z,1
2015-10-27T02:58:01.511Z,1
2015-10-27T02:59:01.686Z,1
2015-10-27T03:00:01.797Z,1
2015-10-27T03:01:02.019Z,1
2015-10-27T03:02:02.131Z,1
2015-10-27T03:03:01.619Z,1
2015-10-27T03:04:01.714Z,1
2015-10-27T03:05:01.889Z,1
2015-10-27T03:06:01.907Z,1
2015-10-27T03:07:02.113Z,1
2015-10-27T03:08:02.224Z,1
2015-10-27T03:09:01.384Z,1
2015-10-27T03:10:01.980Z,1
2015-10-27T03:11:02.140Z,1
2015-10-27T03:12:01.267Z,1
2015-10-27T03:13:01.441Z,1
2015-10-27T03:14:01.585Z,1
2015-10-27T03:15:01.744Z,1
2015-10-27T03:16:02.981Z,1
2015-10-27T03:17:01.890Z,1
2015-10-27T03:18:02.205Z,1
2015-10-27T03:19:04.005Z,1
2015-10-27T03:20:02.257Z,1
2015-10-27T03:21:03.682Z,1
2015-10-27T03:22:04.107Z,1
2015-10-27T03:23:04.656Z,1
2015-10-27T03:24:03.424Z,1
2015-10-27T03:25:02.364Z,1
2015-10-27T03:26:04.508Z,1
2015-10-27T03:27:03.104Z,1
2015-10-27T03:28:02.186Z,1
2015-10-27T03:29:06.844Z,1
2015-10-27T03:30:03.284Z,1
2015-10-27T03:31:01.819Z,1
2015-10-27T03:32:02.384Z,1
2015-10-27T03:33:09.057Z,1
2015-10-27T03:34:07.185Z,1
2015-10-27T03:35:02.641Z,1
2015-10-27T03:36:02.363Z,1
2015-10-27T03:37:01.396Z,1
2015-10-27T03:38:01.993Z,1
2015-10-27T03:39:02.215Z,1
2015-10-27T03:40:01.343Z,1
2015-10-27T03:41:03.813Z,1
2015-10-27T03:42:08.879Z,1
2015-10-27T03:43:01.991Z,1
2015-10-27T03:44:02.229Z,1
2015-10-27T03:45:01.652Z,1
2015-10-27T03:46:02.702Z,1
2015-10-27T03:47:06.987Z,1
2015-10-27T03:48:01.927Z,1
2015-10-27T03:49:02.100Z,1
2015-10-27T03:50:02.275Z,1
2015-10-27T03:51:01.778Z,1
2015-10-27T03:52:04.515Z,1
2015-10-27T03:53:01.955Z,1
2015-10-27T03:54:07.630Z,1
2015-10-27T03:55:04.148Z,1
2015-10-27T03:56:07.573Z,1
2015-10-27T03:57:02.825Z,1
2015-10-27T03:58:12.673Z,1
2015-10-27T03:59:03.909Z,1
2015-10-27T04:00:04.553Z,1
2015-10-27T04:01:01.352Z,1
2015-10-27T04:02:02.933Z,1
2015-10-27T04:03:01.779Z,1
2015-10-27T04:04:01.985Z,1
2015-10-27T04:05:04.425Z,1
2015-10-27T04:06:01.928Z,1
2015-10-27T04:07:02.086Z,1
2015-10-27T04:08:02.277Z,1
2015-10-27T04:09:01.952Z,1
2015-10-27T04:10:02.314Z,1
2015-10-27T04:11:01.847Z,1
2015-10-27T04:12:01.554Z,1
2015-10-27T04:13:01.743Z,1
2015-10-27T04:14:01.935Z,1
2015-10-27T04:15:02.108Z,1
2015-10-27T04:16:02.282Z,1
2015-10-27T04:17:01.363Z,1
2015-10-27T04:18:01.523Z,1
2015-10-27T04:19:01.681Z,1
2015-10-27T04:20:01.856Z,1
2015-10-27T04:21:02.031Z,1
2015-10-27T04:22:02.284Z,1
2015-10-27T04:23:01.458Z,1
2015-10-27T04:24:01.664Z,1
2015-10-27T04:25:01.854Z,1
2015-10-27T04:26:02.045Z,1
2015-10-27T04:27:02.219Z,1
2015-10-27T04:28:01.565Z,1
2015-10-27T04:29:01.709Z,1
2015-10-27T04:30:02.228Z,1
2015-10-27T04:31:02.230Z,1
2015-10-27T04:32:01.529Z,1
2015-10-27T04:33:01.516Z,1
2015-10-27T04:34:01.691Z,1
2015-10-27T04:35:01.833Z,1
2015-10-27T04:36:01.993Z,1
2015-10-27T04:37:02.246Z,1
2015-10-27T04:38:02.577Z,1
2015-10-27T04:39:02.252Z,1
2015-10-27T04:40:01.410Z,1
2015-10-27T04:41:01.569Z,1
2015-10-27T04:42:01.650Z,1
2015-10-27T04:43:01.824Z,1
2015-10-27T04:44:01.967Z,1
2015-10-27T04:45:02.157Z,1
2015-10-27T04:46:01.316Z,1
2015-10-27T04:47:01.476Z,1
2015-10-27T04:48:01.900Z,1
2015-10-27T04:49:02.106Z,1
2015-10-27T04:50:02.406Z,1
2015-10-27T04:51:01.424Z,1
2015-10-27T04:52:01.598Z,1
2015-10-27T04:53:01.757Z,1
2015-10-27T04:54:01.917Z,1
2015-10-27T04:55:02.122Z,1
2015-10-27T04:56:02.297Z,1
2015-10-27T04:57:01.456Z,1
2015-10-27T04:58:01.396Z,1
2015-10-27T04:59:01.571Z,1
2015-10-27T05:00:01.822Z,1
2015-10-27T05:01:01.388Z,1
2015-10-27T05:02:01.516Z,1
2015-10-27T05:03:01.722Z,1
2015-10-27T05:04:01.833Z,1
2015-10-27T05:05:02.008Z,1
2015-10-27T05:06:01.620Z,1
2015-10-27T05:07:01.764Z,1
2015-10-27T05:08:02.000Z,1
2015-10-27T05:09:02.160Z,1
2015-10-27T05:10:01.756Z,1
2015-10-27T05:11:01.900Z,1
2015-10-27T05:12:02.058Z,1
2015-10-27T05:13:02.171Z,1
2015-10-27T05:14:01.377Z,1
2015-10-27T05:15:01.583Z,1
2015-10-27T05:16:01.865Z,1
2015-10-27T05:17:02.040Z,1
2015-10-27T05:18:02.293Z,1
2015-10-27T05:19:01.780Z,1
2015-10-27T05:20:01.970Z,1
2015-10-27T05:21:01.489Z,1
2015-10-27T05:22:01.648Z,1
2015-10-27T05:23:01.791Z,1
2015-10-27T05:24:02.168Z,1
2015-10-27T05:25:02.313Z,1
2015-10-27T05:26:01.455Z,1
2015-10-27T05:27:01.536Z,1
2015-10-27T05:28:01.679Z,1
2015-10-27T05:29:01.604Z,1
2015-10-27T05:30:01.810Z,1
2015-10-27T05:31:01.984Z,1
2015-10-27T05:32:02.284Z,1
2015-10-27T05:33:02.084Z,1
2015-10-27T05:34:02.258Z,1
2015-10-27T05:35:01.698Z,1
2015-10-27T05:36:01.858Z,1
2015-10-27T05:37:02.048Z,1
2015-10-27T05:38:01.972Z,1
2015-10-27T05:39:02.116Z,1
2015-10-27T05:40:02.259Z,1
2015-10-27T05:41:01.544Z,1
2015-10-27T05:42:01.546Z,1
2015-10-27T05:43:01.688Z,1
2015-10-27T05:44:01.816Z,1
2015-10-27T05:45:02.007Z,1
2015-10-27T05:46:01.649Z,1
2015-10-27T05:47:01.855Z,1
2015-10-27T05:48:02.249Z,1
2015-10-27T05:49:01.393Z,1
2015-10-27T05:50:01.535Z,1
2015-10-27T05:51:01.695Z,1
2015-10-27T05:52:01.854Z,1
2015-10-27T05:53:02.029Z,1
2015-10-27T05:54:02.187Z,1
2015-10-27T05:55:01.424Z,1
2015-10-27T05:56:01.584Z,1
2015-10-27T05:57:01.493Z,1
2015-10-27T05:58:01.635Z,1
2015-10-27T05:59:01.809Z,1
2015-10-27T06:00:01.984Z,1
2015-10-27T06:01:02.050Z,1
2015-10-27T06:02:01.130Z,1
2015-10-27T06:03:02.305Z,1
2015-10-27T06:04:01.495Z,1
2015-10-27T06:05:01.670Z,1
2015-10-27T06:06:02.047Z,1
2015-10-27T06:07:02.222Z,1
2015-10-27T06:08:01.506Z,1
2015-10-27T06:09:01.931Z,1
2015-10-27T06:10:02.089Z,1
2015-10-27T06:11:02.264Z,1
2015-10-27T06:12:01.423Z,1
2015-10-27T06:13:01.661Z,1
2015-10-27T06:14:01.319Z,1
2015-10-27T06:15:01.478Z,1
2015-10-27T06:16:01.402Z,1
2015-10-27T06:17:02.249Z,1
2015-10-27T06:18:01.376Z,1
2015-10-27T06:19:02.319Z,1
2015-10-27T06:20:01.486Z,1
2015-10-27T06:21:01.416Z,1
2015-10-27T06:22:01.700Z,1
2015-10-27T06:23:02.500Z,1
2015-10-27T06:24:00.784Z,1
2015-10-27T06:25:02.036Z,1
2015-10-27T06:26:01.335Z,1
2015-10-27T06:27:01.526Z,1
2015-10-27T06:28:01.731Z,1
2015-10-27T06:29:02.078Z,1
2015-10-27T06:30:02.190Z,1
2015-10-27T06:31:02.959Z,1
2015-10-27T06:32:01.664Z,1
2015-10-27T06:33:02.089Z,1
2015-10-27T06:34:02.326Z,1
2015-10-27T06:35:01.501Z,1
2015-10-27T06:36:02.081Z,1
2015-10-27T06:37:01.928Z,1
2015-10-27T06:38:01.806Z,1
2015-10-27T06:39:01.965Z,1
2015-10-27T06:40:02.170Z,1
2015-10-27T06:41:01.500Z,1
2015-10-27T06:42:01.753Z,1
2015-10-27T06:43:01.897Z,1
2015-10-27T06:44:02.196Z,1
2015-10-27T06:45:01.402Z,1
2015-10-27T06:46:01.608Z,1
2015-10-27T06:47:01.658Z,1
2015-10-27T06:48:01.519Z,1
2015-10-27T06:49:01.632Z,1
2015-10-27T06:50:01.853Z,1
2015-10-27T06:51:01.997Z,1
2015-10-27T06:52:02.202Z,1
2015-10-27T06:53:01.315Z,1
2015-10-27T06:54:02.192Z,1
2015-10-27T06:55:01.321Z,1
2015-10-27T06:56:01.510Z,1
2015-10-27T06:57:01.779Z,1
2015-10-27T06:58:01.937Z,1
2015-10-27T06:59:02.081Z,1
2015-10-27T07:00:02.287Z,1
2015-10-27T07:01:01.602Z,1
2015-10-27T07:02:01.745Z,1
2015-10-27T07:03:01.920Z,1
2015-10-27T07:04:01.750Z,1
2015-10-27T07:05:01.878Z,1
2015-10-27T07:06:01.942Z,1
2015-10-27T07:07:02.070Z,1
2015-10-27T07:08:02.245Z,1
2015-10-27T07:09:01.389Z,1
2015-10-27T07:10:01.563Z,1
2015-10-27T07:11:01.786Z,1
2015-10-27T07:12:01.975Z,1
2015-10-27T07:13:02.103Z,1
2015-10-27T07:14:02.824Z,1
2015-10-27T07:15:02.102Z,1
2015-10-27T07:16:01.580Z,1
2015-10-27T07:17:01.668Z,1
2015-10-27T07:18:01.849Z,1
2015-10-27T07:19:01.999Z,1
2015-10-27T07:20:02.323Z,1
2015-10-27T07:21:02.181Z,1
2015-10-27T07:22:02.041Z,1
2015-10-27T07:23:01.759Z,1
2015-10-27T07:24:01.961Z,1
2015-10-27T07:25:02.118Z,1
2015-10-27T07:26:01.917Z,1
2015-10-27T07:27:01.807Z,1
2015-10-27T07:28:01.746Z,1
2015-10-27T07:29:01.951Z,1
2015-10-27T07:30:02.172Z,1
2015-10-27T07:31:01.829Z,1
2015-10-27T07:32:02.145Z,1
2015-10-27T07:33:01.600Z,1
2015-10-27T07:34:01.821Z,1
2015-10-27T07:35:02.010Z,1
2015-10-27T07:36:02.247Z,1
2015-10-27T07:37:00.313Z,1
2015-10-27T07:38:01.503Z,1
2015-10-27T07:39:01.693Z,1
2015-10-27T07:40:02.008Z,1
2015-10-27T07:41:02.105Z,1
2015-10-27T07:42:01.421Z,1
2015-10-27T07:43:02.188Z,1
2015-10-27T07:44:01.394Z,1
2015-10-27T07:45:01.616Z,1
2015-10-27T07:46:01.837Z,1
2015-10-27T07:47:02.012Z,1
2015-10-27T07:48:01.873Z,1
2015-10-27T07:49:02.022Z,1
2015-10-27T07:50:02.229Z,1
2015-10-27T07:51:01.341Z,1
2015-10-27T07:52:01.485Z,1
2015-10-27T07:53:01.440Z,1
2015-10-27T07:54:01.629Z,1
2015-10-27T07:55:01.773Z,1
2015-10-27T07:56:02.041Z,1
2015-10-27T07:57:02.168Z,28
2015-10-27T07:58:01.343Z,29
2015-10-27T07:59:01.518Z,27
2015-10-27T08:00:03.193Z,853
2015-10-27T08:01:01.836Z,854
2015-10-27T08:02:02.167Z,855
2015-10-27T08:03:01.342Z,854
2015-10-27T08:04:02.157Z,858
2015-10-27T08:05:01.565Z,852
2015-10-27T08:06:01.272Z,859
2015-10-27T08:07:02.056Z,855
2015-10-27T08:08:02.371Z,859
2015-10-27T08:09:01.436Z,858
2015-10-27T08:10:01.626Z,862
2015-10-27T08:11:02.003Z,865
2015-10-27T08:12:02.194Z,863
2015-10-27T08:13:01.290Z,863
2015-10-27T08:14:01.497Z,863
2015-10-27T08:15:01.842Z,869
2015-10-27T08:16:02.252Z,866
2015-10-27T08:17:01.380Z,870
2015-10-27T08:18:01.820Z,867
2015-10-27T08:19:01.775Z,867
2015-10-27T08:20:02.278Z,869
2015-10-27T08:21:01.327Z,874
2015-10-27T08:22:01.565Z,870
2015-10-27T08:23:01.832Z,872
2015-10-27T08:24:02.007Z,875
2015-10-27T08:25:02.135Z,873
2015-10-27T08:26:01.341Z,879
2015-10-27T08:27:01.562Z,878
2015-10-27T08:28:01.659Z,878
2015-10-27T08:29:01.787Z,877
2015-10-27T08:30:01.977Z,881
2015-10-27T08:31:01.901Z,880
2015-10-27T08:32:02.326Z,884
2015-10-27T08:33:01.516Z,881
2015-10-27T08:34:01.863Z,887
2015-10-27T08:35:01.756Z,888
2015-10-27T08:36:01.868Z,884
2015-10-27T08:37:02.026Z,889
2015-10-27T08:38:02.201Z,888
2015-10-27T08:39:01.267Z,891
2015-10-27T08:40:01.644Z,889
2015-10-27T08:41:03.162Z,892
2015-10-27T08:42:02.056Z,892
2015-10-27T08:43:02.481Z,892
2015-10-27T08:44:01.358Z,893
2015-10-27T08:45:01.627Z,893
2015-10-27T08:46:01.442Z,896
2015-10-27T08:47:02.383Z,896
2015-10-27T08:48:02.087Z,902
2015-10-27T08:49:02.137Z,899
2015-10-27T08:50:01.280Z,903
2015-10-27T08:51:01.471Z,902
2015-10-27T08:52:01.583Z,899
2015-10-27T08:53:01.757Z,903
2015-10-27T08:54:02.307Z,906
2015-10-27T08:55:02.216Z,903
2015-10-27T08:56:01.749Z,906
2015-10-27T08:57:01.846Z,26
2015-10-27T08:58:02.319Z,30
2015-10-27T08:59:02.055Z,28
2015-10-27T09:00:02.480Z,852
2015-10-27T09:01:01.452Z,852
2015-10-27T09:02:01.954Z,855
2015-10-27T09:03:02.019Z,859
2015-10-27T09:04:02.224Z,856
2015-10-27T09:05:01.462Z,860
2015-10-27T09:06:02.074Z,861
2015-10-27T09:07:01.312Z,862
2015-10-27T09:08:01.532Z,861
2015-10-27T09:09:01.863Z,862
2015-10-27T09:10:02.101Z,862
2015-10-27T09:11:01.354Z,862
2015-10-27T09:12:01.512Z,867
2015-10-27T09:13:01.735Z,866
2015-10-27T09:14:01.970Z,867
2015-10-27T09:15:01.723Z,866
2015-10-27T09:16:02.007Z,866
2015-10-27T09:17:02.151Z,873
2015-10-27T09:18:01.309Z,871
2015-10-27T09:19:01.453Z,868
2015-10-27T09:20:01.643Z,876
2015-10-27T09:21:01.615Z,874
2015-10-27T09:22:01.883Z,872
2015-10-27T09:23:02.136Z,879
2015-10-27T09:24:01.342Z,875
2015-10-27T09:25:01.564Z,877
2015-10-27T09:26:01.863Z,877
2015-10-27T09:27:02.084Z,879
2015-10-27T09:28:02.681Z,880
2015-10-27T09:29:01.512Z,878
2015-10-27T09:30:01.717Z,880
2015-10-27T09:31:02.141Z,885
2015-10-27T09:32:02.082Z,886
2015-10-27T09:33:02.053Z,883
2015-10-27T09:34:02.290Z,887
2015-10-27T09:35:01.402Z,884
2015-10-27T09:36:01.765Z,887
2015-10-27T09:37:01.861Z,892
2015-10-27T09:38:01.535Z,891
2015-10-27T09:39:01.460Z,893
2015-10-27T09:40:02.057Z,894
2015-10-27T09:41:01.310Z,896
2015-10-27T09:42:01.468Z,897
2015-10-27T09:43:01.643Z,895
2015-10-27T09:44:01.802Z,898
2015-10-27T09:45:01.961Z,895
2015-10-27T09:46:02.417Z,902
2015-10-27T09:47:01.419Z,900
2015-10-27T09:48:02.578Z,904
2015-10-27T09:49:01.487Z,900
2015-10-27T09:50:02.177Z,905
2015-10-27T09:51:01.836Z,904
2015-10-27T09:52:02.136Z,907
2015-10-27T09:53:02.029Z,905
2015-10-27T09:54:01.469Z,908
2015-10-27T09:55:01.581Z,910
2015-10-27T09:56:01.944Z,906
2015-10-27T09:57:01.993Z,30
2015-10-27T09:58:02.261Z,30
2015-10-27T09:59:01.341Z,26
2015-10-27T10:00:01.595Z,25
2015-10-27T10:01:01.300Z,857
2015-10-27T10:02:01.585Z,856
2015-10-27T10:03:01.868Z,857
2015-10-27T10:04:01.683Z,856
2015-10-27T10:05:01.843Z,859
2015-10-27T10:06:02.252Z,864
2015-10-27T10:07:02.285Z,861
2015-10-27T10:08:02.194Z,861
2015-10-27T10:09:01.369Z,864
2015-10-27T10:10:01.591Z,865
2015-10-27T10:11:02.062Z,864
2015-10-27T10:12:01.940Z,869
2015-10-27T10:13:02.067Z,869
2015-10-27T10:14:02.070Z,870
2015-10-27T10:15:02.103Z,867
2015-10-27T10:16:02.278Z,871
2015-10-27T10:17:01.468Z,869
2015-10-27T10:18:01.534Z,874
2015-10-27T10:19:01.708Z,877
2015-10-27T10:20:01.898Z,876
2015-10-27T10:21:02.167Z,876
2015-10-27T10:22:01.451Z,879
2015-10-27T10:23:02.219Z,877
2015-10-27T10:24:01.331Z,881
2015-10-27T10:25:01.490Z,882
2015-10-27T10:26:01.728Z,878
2015-10-27T10:27:01.714Z,881
2015-10-27T10:28:01.920Z,883
2015-10-27T10:29:02.111Z,881
2015-10-27T10:30:01.316Z,881
2015-10-27T10:31:01.943Z,883
2015-10-27T10:32:01.711Z,889
2015-10-27T10:33:01.824Z,886
2015-10-27T10:34:02.030Z,891
2015-10-27T10:35:02.204Z,890
2015-10-27T10:36:01.926Z,890
2015-10-27T10:37:01.413Z,890
2015-10-27T10:38:01.650Z,889
2015-10-27T10:39:02.152Z,894
2015-10-27T10:40:02.218Z,897
2015-10-27T10:41:01.783Z,894
2015-10-27T10:42:01.942Z,900
2015-10-27T10:43:02.351Z,897
2015-10-27T10:44:02.213Z,897
2015-10-27T10:45:01.388Z,899
2015-10-27T10:46:01.735Z,904
2015-10-27T10:47:02.502Z,903
2015-10-27T10:48:02.161Z,905
2015-10-27T10:49:01.336Z,904
2015-10-27T10:50:01.464Z,905
2015-10-27T10:51:01.842Z,905
2015-10-27T10:52:02.000Z,909
2015-10-27T10:53:02.159Z,911
2015-10-27T10:54:01.350Z,907
2015-10-27T10:55:01.978Z,913
2015-10-27T10:56:02.136Z,912
2015-10-27T10:57:02.200Z,29
2015-10-27T10:58:01.344Z,29
2015-10-27T10:59:01.519Z,25
2015-10-27T11:00:01.725Z,855
2015-10-27T11:01:02.196Z,861
2015-10-27T11:02:01.355Z,857
2015-10-27T11:03:01.639Z,856
2015-10-27T11:04:01.502Z,857
2015-10-27T11:05:01.613Z,861
2015-10-27T11:06:01.335Z,862
2015-10-27T11:07:02.056Z,866
2015-10-27T11:08:02.200Z,863
2015-10-27T11:09:01.390Z,864
2015-10-27T11:10:01.924Z,867
2015-10-27T11:11:02.271Z,869
2015-10-27T11:12:01.382Z,867
2015-10-27T11:13:01.557Z,869
2015-10-27T11:14:01.715Z,867
2015-10-27T11:15:01.937Z,869
2015-10-27T11:16:02.065Z,874
2015-10-27T11:17:02.223Z,877
2015-10-27T11:18:01.617Z,872
2015-10-27T11:19:02.401Z,878
2015-10-27T11:20:01.498Z,873
2015-10-27T11:21:01.906Z,878
2015-10-27T11:22:02.096Z,880
2015-10-27T11:23:02.271Z,883
2015-10-27T11:24:01.446Z,881
2015-10-27T11:25:01.667Z,884
2015-10-27T11:26:01.873Z,883
2015-10-27T11:27:01.907Z,887
2015-10-27T11:28:02.082Z,887
2015-10-27T11:29:02.240Z,887
2015-10-27T11:30:01.414Z,885
2015-10-27T11:31:01.589Z,888
2015-10-27T11:32:01.858Z,886
2015-10-27T11:33:01.907Z,893
2015-10-27T11:34:02.535Z,890
2015-10-27T11:35:01.663Z,894
2015-10-27T11:36:02.416Z,893
2015-10-27T11:37:02.215Z,896
2015-10-27T11:38:01.389Z,892
2015-10-27T11:39:01.627Z,892
2015-10-27T11:40:01.770Z,897
2015-10-27T11:41:02.132Z,895
2015-10-27T11:42:02.197Z,899
2015-10-27T11:43:01.357Z,897
2015-10-27T11:44:01.531Z,902
2015-10-27T11:45:02.018Z,904
2015-10-27T11:46:02.271Z,905
2015-10-27T11:47:02.257Z,902
2015-10-27T11:48:01.776Z,903
2015-10-27T11:49:01.700Z,908
2015-10-27T11:50:01.890Z,904
2015-10-27T11:51:02.299Z,909
2015-10-27T11:52:02.349Z,910
2015-10-27T11:53:02.211Z,908
2015-10-27T11:54:01.370Z,907
2015-10-27T11:55:01.529Z,911
2015-10-27T11:56:01.751Z,909
2015-10-27T11:57:01.690Z,910
2015-10-27T11:58:01.850Z,30
2015-10-27T11:59:02.040Z,28
2015-10-27T12:00:01.824Z,861
2015-10-27T12:01:01.764Z,861
2015-10-27T12:02:01.267Z,860
2015-10-27T12:03:01.441Z,863
2015-10-27T12:04:01.584Z,863
2015-10-27T12:05:01.776Z,865
2015-10-27T12:06:01.951Z,867
2015-10-27T12:07:02.094Z,865
2015-10-27T12:08:02.238Z,867
2015-10-27T12:09:01.396Z,867
2015-10-27T12:10:01.509Z,865
2015-10-27T12:11:01.762Z,872
2015-10-27T12:12:02.327Z,870
2015-10-27T12:13:03.454Z,874
2015-10-27T12:14:02.129Z,876
2015-10-27T12:15:01.303Z,874
2015-10-27T12:16:01.493Z,875
2015-10-27T12:17:02.137Z,876
2015-10-27T12:18:01.296Z,878
2015-10-27T12:19:01.612Z,877
2015-10-27T12:20:02.489Z,876
2015-10-27T12:21:02.148Z,881
2015-10-27T12:22:02.229Z,883
2015-10-27T12:23:01.857Z,880
2015-10-27T12:24:01.719Z,885
2015-10-27T12:25:01.862Z,883
2015-10-27T12:26:02.099Z,882
2015-10-27T12:27:02.242Z,889
2015-10-27T12:28:01.479Z,889
2015-10-27T12:29:01.450Z,884
2015-10-27T12:30:02.610Z,887
2015-10-27T12:31:02.066Z,888
2015-10-27T12:32:02.380Z,891
2015-10-27T12:33:01.446Z,893
2015-10-27T12:34:01.792Z,892
2015-10-27T12:35:01.983Z,893
2015-10-27T12:36:02.985Z,897
2015-10-27T12:37:01.894Z,897
2015-10-27T12:38:02.100Z,897
2015-10-27T12:39:02.369Z,898
2015-10-27T12:40:01.715Z,900
2015-10-27T12:41:02.061Z,903
2015-10-27T12:42:02.282Z,899
2015-10-27T12:43:01.473Z,902
2015-10-27T12:44:01.834Z,905
2015-10-27T12:45:01.962Z,903
2015-10-27T12:46:02.184Z,905
2015-10-27T12:47:01.374Z,902
2015-10-27T12:48:01.439Z,909
2015-10-27T12:49:01.582Z,910
2015-10-27T12:50:01.757Z,911
2015-10-27T12:51:01.885Z,913
2015-10-27T12:52:01.981Z,910
2015-10-27T12:53:02.125Z,909
2015-10-27T12:54:02.300Z,911
2015-10-27T12:55:01.474Z,914
2015-10-27T12:56:01.680Z,916
2015-10-27T12:57:01.729Z,915
2015-10-27T12:58:01.904Z,26
2015-10-27T12:59:02.047Z,24
2015-10-27T13:00:02.269Z,864
2015-10-27T13:01:01.536Z,859
2015-10-27T13:02:00.680Z,859
2015-10-27T13:03:01.839Z,865
2015-10-27T13:04:01.998Z,862
2015-10-27T13:05:02.173Z,868
2015-10-27T13:06:01.332Z,865
2015-10-27T13:07:01.788Z,870
2015-10-27T13:08:01.541Z,867
2015-10-27T13:09:01.340Z,872
2015-10-27T13:10:01.951Z,869
2015-10-27T13:11:02.126Z,875
2015-10-27T13:12:02.207Z,872
2015-10-27T13:13:01.366Z,876
2015-10-27T13:14:01.493Z,871
2015-10-27T13:15:01.746Z,875
2015-10-27T13:16:01.843Z,879
2015-10-27T13:17:01.846Z,877
2015-10-27T13:18:02.067Z,880
2015-10-27T13:19:02.210Z,879
2015-10-27T13:20:02.354Z,883
2015-10-27T13:21:00.623Z,881
2015-10-27T13:22:01.796Z,879
2015-10-27T13:23:01.924Z,883
2015-10-27T13:24:02.068Z,888
2015-10-27T13:25:02.226Z,889
2015-10-27T13:26:01.589Z,888
2015-10-27T13:27:01.700Z,884
2015-10-27T13:28:02.375Z,892
2015-10-27T13:29:01.315Z,887
2015-10-27T13:30:01.630Z,891
2015-10-27T13:31:02.539Z,889
2015-10-27T13:32:01.558Z,894
2015-10-27T13:33:01.639Z,894
2015-10-27T13:34:02.047Z,898
2015-10-27T13:35:02.019Z,899
2015-10-27T13:36:02.303Z,900
2015-10-27T13:37:01.541Z,894
2015-10-27T13:38:01.808Z,897
2015-10-27T13:39:01.967Z,900
2015-10-27T13:40:02.189Z,899
2015-10-27T13:41:01.833Z,901
2015-10-27T13:42:02.209Z,902
2015-10-27T13:43:02.212Z,901
2015-10-27T13:44:01.527Z,905
2015-10-27T13:45:01.640Z,908
2015-10-27T13:46:02.376Z,909
2015-10-27T13:47:01.660Z,905
2015-10-27T13:48:01.851Z,909
2015-10-27T13:49:02.010Z,909
2015-10-27T13:50:02.216Z,913
2015-10-27T13:51:01.343Z,913
2015-10-27T13:52:02.673Z,910
2015-10-27T13:53:01.614Z,916
2015-10-27T13:54:01.664Z,915
2015-10-27T13:55:01.807Z,918
2015-10-27T13:56:02.091Z,914
2015-10-27T13:57:02.514Z,30
2015-10-27T13:58:01.455Z,27
2015-10-27T13:59:01.724Z,25
2015-10-27T14:00:01.976Z,24
2015-10-27T14:01:01.994Z,862
2015-10-27T14:02:02.153Z,865
2015-10-27T14:03:01.375Z,867
2015-10-27T14:04:01.925Z,869
2015-10-27T14:05:02.254Z,866
2015-10-27T14:06:02.382Z,871
2015-10-27T14:07:01.963Z,867
2015-10-27T14:08:02.060Z,873
2015-10-27T14:09:02.656Z,875
2015-10-27T14:10:01.769Z,872
2015-10-27T14:11:02.021Z,876
2015-10-27T14:12:02.524Z,875
2015-10-27T14:13:02.371Z,876
2015-10-27T14:14:02.310Z,874
2015-10-27T14:15:01.469Z,879
2015-10-27T14:16:01.862Z,878
2015-10-27T14:17:01.818Z,882
2015-10-27T14:18:02.508Z,878
2015-10-27T14:19:02.277Z,885
2015-10-27T14:20:01.498Z,882
2015-10-27T14:21:02.158Z,883
2015-10-27T14:22:01.738Z,887
2015-10-27T14:23:02.084Z,888
2015-10-27T14:24:02.212Z,885
2015-10-27T14:25:01.356Z,885
2015-10-27T14:26:01.577Z,890
2015-10-27T14:27:01.799Z,890
2015-10-27T14:28:02.192Z,891
2015-10-27T14:29:01.366Z,893
2015-10-27T14:30:01.557Z,889
2015-10-27T14:31:01.669Z,891
2015-10-27T14:32:01.827Z,892
2015-10-27T14:33:02.033Z,897
2015-10-27T14:34:02.302Z,896
2015-10-27T14:35:01.445Z,897
2015-10-27T14:36:01.744Z,901
2015-10-27T14:37:01.951Z,897
2015-10-27T14:38:02.141Z,898
2015-10-27T14:39:01.378Z,899
2015-10-27T14:40:01.584Z,900
2015-10-27T14:41:01.837Z,904
2015-10-27T14:42:02.057Z,907